sensor_id;sensor_type;location;lat;lon;timestamp;P1;durP1;ratioP1;P2;durP2;ratioP2
59907;SDS011;61804;54.926;73.496;2023-12-29T00:00:33;6.13;;;4.50;;
59907;SDS011;61804;54.926;73.496;2023-12-29T00:03:00;10.10;;;6.38;;
59907;SDS011;61804;54.926;73.496;2023-12-29T00:05:28;7.05;;;6.05;;
59907;SDS011;61804;54.926;73.496;2023-12-29T00:07:56;8.25;;;5.45;;
59907;SDS011;61804;54.926;73.496;2023-12-29T00:10:24;8.20;;;4.95;;
59907;SDS011;61804;54.926;73.496;2023-12-29T00:12:53;6.38;;;5.45;;
59907;SDS011;61804;54.926;73.496;2023-12-29T00:15:21;6.07;;;4.40;;
59907;SDS011;61804;54.926;73.496;2023-12-29T00:17:49;3.90;;;3.55;;
59907;SDS011;61804;54.926;73.496;2023-12-29T00:20:17;4.85;;;4.00;;
59907;SDS011;61804;54.926;73.496;2023-12-29T00:22:44;12.15;;;8.13;;
59907;SDS011;61804;54.926;73.496;2023-12-29T00:25:15;14.30;;;6.38;;
59907;SDS011;61804;54.926;73.496;2023-12-29T00:27:43;8.85;;;5.30;;
59907;SDS011;61804;54.926;73.496;2023-12-29T00:30:11;14.73;;;8.60;;
59907;SDS011;61804;54.926;73.496;2023-12-29T00:32:41;18.73;;;9.40;;
59907;SDS011;61804;54.926;73.496;2023-12-29T00:35:08;13.57;;;10.23;;
59907;SDS011;61804;54.926;73.496;2023-12-29T00:37:37;12.70;;;6.20;;
59907;SDS011;61804;54.926;73.496;2023-12-29T00:40:06;8.90;;;5.25;;
59907;SDS011;61804;54.926;73.496;2023-12-29T00:42:34;8.00;;;5.38;;
59907;SDS011;61804;54.926;73.496;2023-12-29T00:45:04;3.35;;;3.05;;
59907;SDS011;61804;54.926;73.496;2023-12-29T00:47:34;6.43;;;3.80;;
59907;SDS011;61804;54.926;73.496;2023-12-29T00:50:04;5.13;;;4.63;;
59907;SDS011;61804;54.926;73.496;2023-12-29T00:52:32;5.68;;;3.95;;
59907;SDS011;61804;54.926;73.496;2023-12-29T00:55:00;8.15;;;4.70;;
59907;SDS011;61804;54.926;73.496;2023-12-29T00:57:28;5.22;;;4.72;;
59907;SDS011;61804;54.926;73.496;2023-12-29T00:59:56;7.32;;;4.13;;
59907;SDS011;61804;54.926;73.496;2023-12-29T01:02:24;7.88;;;4.40;;
59907;SDS011;61804;54.926;73.496;2023-12-29T01:04:53;4.68;;;3.88;;
59907;SDS011;61804;54.926;73.496;2023-12-29T01:07:20;3.42;;;2.63;;
59907;SDS011;61804;54.926;73.496;2023-12-29T01:09:49;10.82;;;3.40;;
59907;SDS011;61804;54.926;73.496;2023-12-29T01:12:17;4.65;;;3.47;;
59907;SDS011;61804;54.926;73.496;2023-12-29T01:14:46;3.33;;;3.03;;
59907;SDS011;61804;54.926;73.496;2023-12-29T01:17:13;5.40;;;4.80;;
59907;SDS011;61804;54.926;73.496;2023-12-29T01:19:41;7.03;;;5.95;;
59907;SDS011;61804;54.926;73.496;2023-12-29T01:22:08;5.88;;;3.85;;
59907;SDS011;61804;54.926;73.496;2023-12-29T01:24:36;5.70;;;4.28;;
59907;SDS011;61804;54.926;73.496;2023-12-29T01:27:04;5.47;;;4.40;;
59907;SDS011;61804;54.926;73.496;2023-12-29T01:29:32;6.30;;;5.03;;
59907;SDS011;61804;54.926;73.496;2023-12-29T01:31:59;6.07;;;5.47;;
59907;SDS011;61804;54.926;73.496;2023-12-29T01:34:27;5.43;;;4.25;;
59907;SDS011;61804;54.926;73.496;2023-12-29T01:37:02;3.50;;;3.20;;
59907;SDS011;61804;54.926;73.496;2023-12-29T01:39:30;7.45;;;5.30;;
59907;SDS011;61804;54.926;73.496;2023-12-29T01:41:58;6.93;;;5.00;;
59907;SDS011;61804;54.926;73.496;2023-12-29T01:44:26;3.47;;;3.17;;
59907;SDS011;61804;54.926;73.496;2023-12-29T01:46:57;4.25;;;3.83;;
59907;SDS011;61804;54.926;73.496;2023-12-29T01:49:27;2.90;;;2.42;;
59907;SDS011;61804;54.926;73.496;2023-12-29T01:51:57;3.83;;;2.95;;
59907;SDS011;61804;54.926;73.496;2023-12-29T01:54:25;5.20;;;3.88;;
59907;SDS011;61804;54.926;73.496;2023-12-29T01:56:56;9.30;;;5.35;;
59907;SDS011;61804;54.926;73.496;2023-12-29T01:59:25;6.00;;;2.90;;
59907;SDS011;61804;54.926;73.496;2023-12-29T02:01:55;3.88;;;3.58;;
59907;SDS011;61804;54.926;73.496;2023-12-29T02:04:26;6.38;;;3.28;;
59907;SDS011;61804;54.926;73.496;2023-12-29T02:06:55;7.32;;;4.47;;
59907;SDS011;61804;54.926;73.496;2023-12-29T02:09:23;4.82;;;3.28;;
59907;SDS011;61804;54.926;73.496;2023-12-29T02:11:51;8.10;;;4.07;;
59907;SDS011;61804;54.926;73.496;2023-12-29T02:14:18;8.45;;;4.45;;
59907;SDS011;61804;54.926;73.496;2023-12-29T02:19:41;6.28;;;3.28;;
59907;SDS011;61804;54.926;73.496;2023-12-29T02:22:11;5.50;;;3.75;;
59907;SDS011;61804;54.926;73.496;2023-12-29T02:24:44;4.13;;;2.65;;
59907;SDS011;61804;54.926;73.496;2023-12-29T02:27:17;9.23;;;5.22;;
59907;SDS011;61804;54.926;73.496;2023-12-29T02:29:56;7.10;;;3.97;;
59907;SDS011;61804;54.926;73.496;2023-12-29T02:32:29;4.78;;;3.92;;
59907;SDS011;61804;54.926;73.496;2023-12-29T02:34:58;8.60;;;3.78;;
59907;SDS011;61804;54.926;73.496;2023-12-29T02:37:28;5.00;;;4.25;;
59907;SDS011;61804;54.926;73.496;2023-12-29T02:39:56;3.63;;;2.67;;
59907;SDS011;61804;54.926;73.496;2023-12-29T02:42:24;2.55;;;2.13;;
59907;SDS011;61804;54.926;73.496;2023-12-29T02:44:52;7.20;;;3.53;;
59907;SDS011;61804;54.926;73.496;2023-12-29T02:47:20;7.22;;;2.63;;
59907;SDS011;61804;54.926;73.496;2023-12-29T02:49:48;6.78;;;3.25;;
59907;SDS011;61804;54.926;73.496;2023-12-29T02:52:17;8.50;;;3.15;;
59907;SDS011;61804;54.926;73.496;2023-12-29T02:54:45;2.80;;;2.58;;
59907;SDS011;61804;54.926;73.496;2023-12-29T02:57:12;4.25;;;3.88;;
59907;SDS011;61804;54.926;73.496;2023-12-29T02:59:39;4.65;;;2.83;;
59907;SDS011;61804;54.926;73.496;2023-12-29T03:02:07;7.60;;;3.78;;
59907;SDS011;61804;54.926;73.496;2023-12-29T03:04:35;5.60;;;4.15;;
59907;SDS011;61804;54.926;73.496;2023-12-29T03:07:02;6.97;;;3.85;;
59907;SDS011;61804;54.926;73.496;2023-12-29T03:09:30;8.15;;;4.22;;
59907;SDS011;61804;54.926;73.496;2023-12-29T03:11:58;4.45;;;3.95;;
59907;SDS011;61804;54.926;73.496;2023-12-29T03:14:26;5.95;;;3.90;;
59907;SDS011;61804;54.926;73.496;2023-12-29T03:16:53;3.33;;;3.03;;
59907;SDS011;61804;54.926;73.496;2023-12-29T03:19:20;5.05;;;4.50;;
59907;SDS011;61804;54.926;73.496;2023-12-29T03:21:48;4.63;;;3.92;;
59907;SDS011;61804;54.926;73.496;2023-12-29T03:24:16;6.60;;;3.53;;
59907;SDS011;61804;54.926;73.496;2023-12-29T03:26:44;3.72;;;3.22;;
59907;SDS011;61804;54.926;73.496;2023-12-29T03:29:11;4.63;;;4.22;;
59907;SDS011;61804;54.926;73.496;2023-12-29T03:31:39;6.35;;;4.20;;
59907;SDS011;61804;54.926;73.496;2023-12-29T03:34:06;5.93;;;5.00;;
59907;SDS011;61804;54.926;73.496;2023-12-29T03:36:35;3.80;;;3.10;;
59907;SDS011;61804;54.926;73.496;2023-12-29T03:39:04;7.70;;;4.38;;
59907;SDS011;61804;54.926;73.496;2023-12-29T03:41:32;5.40;;;4.35;;
59907;SDS011;61804;54.926;73.496;2023-12-29T03:44:26;4.03;;;2.90;;
59907;SDS011;61804;54.926;73.496;2023-12-29T03:46:54;3.40;;;2.75;;
59907;SDS011;61804;54.926;73.496;2023-12-29T03:49:47;5.40;;;3.70;;
59907;SDS011;61804;54.926;73.496;2023-12-29T03:52:16;13.38;;;3.17;;
59907;SDS011;61804;54.926;73.496;2023-12-29T03:54:44;4.25;;;2.80;;
59907;SDS011;61804;54.926;73.496;2023-12-29T03:57:13;4.60;;;3.15;;
59907;SDS011;61804;54.926;73.496;2023-12-29T03:59:42;3.47;;;2.40;;
59907;SDS011;61804;54.926;73.496;2023-12-29T04:02:10;5.35;;;4.28;;
59907;SDS011;61804;54.926;73.496;2023-12-29T04:04:39;4.03;;;3.20;;
59907;SDS011;61804;54.926;73.496;2023-12-29T04:07:07;2.72;;;2.15;;
59907;SDS011;61804;54.926;73.496;2023-12-29T04:09:34;3.35;;;2.53;;
59907;SDS011;61804;54.926;73.496;2023-12-29T04:12:02;2.63;;;2.17;;
59907;SDS011;61804;54.926;73.496;2023-12-29T04:14:30;4.75;;;3.45;;
59907;SDS011;61804;54.926;73.496;2023-12-29T04:17:00;3.30;;;2.45;;
59907;SDS011;61804;54.926;73.496;2023-12-29T04:19:30;2.92;;;2.63;;
59907;SDS011;61804;54.926;73.496;2023-12-29T04:21:57;5.28;;;4.15;;
59907;SDS011;61804;54.926;73.496;2023-12-29T04:24:25;3.10;;;2.75;;
59907;SDS011;61804;54.926;73.496;2023-12-29T04:26:52;2.97;;;2.38;;
59907;SDS011;61804;54.926;73.496;2023-12-29T04:29:21;4.10;;;2.20;;
59907;SDS011;61804;54.926;73.496;2023-12-29T04:31:48;2.45;;;1.95;;
59907;SDS011;61804;54.926;73.496;2023-12-29T04:34:16;3.38;;;1.90;;
59907;SDS011;61804;54.926;73.496;2023-12-29T04:36:44;3.28;;;2.42;;
59907;SDS011;61804;54.926;73.496;2023-12-29T04:39:12;3.53;;;2.92;;
59907;SDS011;61804;54.926;73.496;2023-12-29T04:41:41;6.30;;;2.75;;
59907;SDS011;61804;54.926;73.496;2023-12-29T04:44:09;2.63;;;2.03;;
59907;SDS011;61804;54.926;73.496;2023-12-29T04:46:36;3.25;;;1.85;;
59907;SDS011;61804;54.926;73.496;2023-12-29T04:49:05;7.03;;;4.15;;
59907;SDS011;61804;54.926;73.496;2023-12-29T04:51:32;2.13;;;1.58;;
59907;SDS011;61804;54.926;73.496;2023-12-29T04:54:00;2.10;;;1.80;;
59907;SDS011;61804;54.926;73.496;2023-12-29T04:56:28;2.40;;;2.20;;
59907;SDS011;61804;54.926;73.496;2023-12-29T04:58:57;2.85;;;1.92;;
59907;SDS011;61804;54.926;73.496;2023-12-29T05:01:26;3.38;;;3.08;;
59907;SDS011;61804;54.926;73.496;2023-12-29T05:03:53;7.57;;;3.85;;
59907;SDS011;61804;54.926;73.496;2023-12-29T05:06:21;2.17;;;1.98;;
59907;SDS011;61804;54.926;73.496;2023-12-29T05:08:51;3.08;;;2.22;;
59907;SDS011;61804;54.926;73.496;2023-12-29T05:11:18;2.13;;;1.95;;
59907;SDS011;61804;54.926;73.496;2023-12-29T05:13:46;3.13;;;1.90;;
59907;SDS011;61804;54.926;73.496;2023-12-29T05:16:14;8.40;;;3.03;;
59907;SDS011;61804;54.926;73.496;2023-12-29T05:18:43;4.55;;;2.80;;
59907;SDS011;61804;54.926;73.496;2023-12-29T05:21:16;6.28;;;1.85;;
59907;SDS011;61804;54.926;73.496;2023-12-29T05:23:44;3.00;;;2.03;;
59907;SDS011;61804;54.926;73.496;2023-12-29T05:26:16;1.55;;;1.45;;
59907;SDS011;61804;54.926;73.496;2023-12-29T05:28:44;2.00;;;1.83;;
59907;SDS011;61804;54.926;73.496;2023-12-29T05:31:12;2.75;;;1.70;;
59907;SDS011;61804;54.926;73.496;2023-12-29T05:33:40;5.75;;;2.45;;
59907;SDS011;61804;54.926;73.496;2023-12-29T05:36:08;1.40;;;1.30;;
59907;SDS011;61804;54.926;73.496;2023-12-29T05:38:37;2.38;;;1.48;;
59907;SDS011;61804;54.926;73.496;2023-12-29T05:41:04;3.83;;;3.35;;
59907;SDS011;61804;54.926;73.496;2023-12-29T05:43:32;7.53;;;2.58;;
59907;SDS011;61804;54.926;73.496;2023-12-29T05:46:00;1.92;;;1.65;;
59907;SDS011;61804;54.926;73.496;2023-12-29T05:48:28;2.33;;;0.93;;
59907;SDS011;61804;54.926;73.496;2023-12-29T05:50:56;1.10;;;1.10;;
59907;SDS011;61804;54.926;73.496;2023-12-29T05:53:23;1.90;;;1.73;;
59907;SDS011;61804;54.926;73.496;2023-12-29T05:55:52;1.63;;;1.10;;
59907;SDS011;61804;54.926;73.496;2023-12-29T05:58:20;3.05;;;2.72;;
59907;SDS011;61804;54.926;73.496;2023-12-29T06:00:48;1.55;;;0.88;;
59907;SDS011;61804;54.926;73.496;2023-12-29T06:03:16;0.80;;;0.75;;
59907;SDS011;61804;54.926;73.496;2023-12-29T06:05:43;1.35;;;1.25;;
59907;SDS011;61804;54.926;73.496;2023-12-29T06:08:13;5.68;;;0.70;;
59907;SDS011;61804;54.926;73.496;2023-12-29T06:10:41;3.28;;;2.75;;
59907;SDS011;61804;54.926;73.496;2023-12-29T06:13:09;1.83;;;1.33;;
59907;SDS011;61804;54.926;73.496;2023-12-29T06:15:37;4.30;;;1.73;;
59907;SDS011;61804;54.926;73.496;2023-12-29T06:18:05;2.80;;;1.58;;
59907;SDS011;61804;54.926;73.496;2023-12-29T06:20:32;1.48;;;1.23;;
59907;SDS011;61804;54.926;73.496;2023-12-29T06:23:01;6.88;;;4.57;;
59907;SDS011;61804;54.926;73.496;2023-12-29T06:25:30;1.27;;;1.13;;
59907;SDS011;61804;54.926;73.496;2023-12-29T06:27:59;19.15;;;9.85;;
59907;SDS011;61804;54.926;73.496;2023-12-29T06:30:27;15.15;;;9.82;;
59907;SDS011;61804;54.926;73.496;2023-12-29T06:32:55;11.45;;;7.07;;
59907;SDS011;61804;54.926;73.496;2023-12-29T06:35:23;9.18;;;6.95;;
59907;SDS011;61804;54.926;73.496;2023-12-29T06:37:51;3.08;;;2.70;;
59907;SDS011;61804;54.926;73.496;2023-12-29T06:40:20;4.60;;;1.52;;
59907;SDS011;61804;54.926;73.496;2023-12-29T06:42:48;4.35;;;2.25;;
59907;SDS011;61804;54.926;73.496;2023-12-29T06:45:16;7.78;;;3.95;;
59907;SDS011;61804;54.926;73.496;2023-12-29T06:47:44;6.85;;;4.63;;
59907;SDS011;61804;54.926;73.496;2023-12-29T06:50:11;4.20;;;3.33;;
59907;SDS011;61804;54.926;73.496;2023-12-29T06:52:39;0.80;;;0.80;;
59907;SDS011;61804;54.926;73.496;2023-12-29T06:55:08;8.55;;;6.03;;
59907;SDS011;61804;54.926;73.496;2023-12-29T06:57:35;3.55;;;2.80;;
59907;SDS011;61804;54.926;73.496;2023-12-29T07:00:05;3.88;;;2.45;;
59907;SDS011;61804;54.926;73.496;2023-12-29T07:02:33;1.20;;;1.10;;
59907;SDS011;61804;54.926;73.496;2023-12-29T07:05:01;2.22;;;1.42;;
59907;SDS011;61804;54.926;73.496;2023-12-29T07:07:30;2.20;;;1.42;;
59907;SDS011;61804;54.926;73.496;2023-12-29T07:09:57;1.02;;;0.85;;
59907;SDS011;61804;54.926;73.496;2023-12-29T07:12:26;1.55;;;1.10;;
59907;SDS011;61804;54.926;73.496;2023-12-29T07:14:54;2.05;;;1.33;;
59907;SDS011;61804;54.926;73.496;2023-12-29T07:17:21;2.22;;;1.38;;
59907;SDS011;61804;54.926;73.496;2023-12-29T07:19:49;4.10;;;1.33;;
59907;SDS011;61804;54.926;73.496;2023-12-29T07:22:17;1.30;;;1.20;;
59907;SDS011;61804;54.926;73.496;2023-12-29T07:24:44;1.10;;;0.80;;
59907;SDS011;61804;54.926;73.496;2023-12-29T07:27:12;1.05;;;0.98;;
59907;SDS011;61804;54.926;73.496;2023-12-29T07:29:39;1.23;;;1.10;;
59907;SDS011;61804;54.926;73.496;2023-12-29T07:32:07;4.93;;;1.92;;
59907;SDS011;61804;54.926;73.496;2023-12-29T07:34:35;1.30;;;1.00;;
59907;SDS011;61804;54.926;73.496;2023-12-29T07:37:05;1.27;;;1.17;;
59907;SDS011;61804;54.926;73.496;2023-12-29T07:39:32;0.90;;;0.82;;
59907;SDS011;61804;54.926;73.496;2023-12-29T07:42:00;0.65;;;0.65;;
59907;SDS011;61804;54.926;73.496;2023-12-29T07:44:32;0.63;;;0.47;;
59907;SDS011;61804;54.926;73.496;2023-12-29T07:47:00;2.55;;;2.13;;
59907;SDS011;61804;54.926;73.496;2023-12-29T07:49:27;1.92;;;1.73;;
59907;SDS011;61804;54.926;73.496;2023-12-29T07:51:54;0.80;;;0.80;;
59907;SDS011;61804;54.926;73.496;2023-12-29T07:54:26;2.20;;;0.85;;
59907;SDS011;61804;54.926;73.496;2023-12-29T07:56:53;1.00;;;0.80;;
59907;SDS011;61804;54.926;73.496;2023-12-29T07:59:21;2.05;;;0.65;;
59907;SDS011;61804;54.926;73.496;2023-12-29T08:01:49;0.65;;;0.63;;
59907;SDS011;61804;54.926;73.496;2023-12-29T08:04:18;0.50;;;0.50;;
59907;SDS011;61804;54.926;73.496;2023-12-29T08:06:46;5.97;;;3.95;;
59907;SDS011;61804;54.926;73.496;2023-12-29T08:09:14;3.17;;;1.88;;
59907;SDS011;61804;54.926;73.496;2023-12-29T08:11:41;3.85;;;2.08;;
59907;SDS011;61804;54.926;73.496;2023-12-29T08:14:09;1.30;;;0.80;;
59907;SDS011;61804;54.926;73.496;2023-12-29T08:16:38;1.10;;;0.95;;
59907;SDS011;61804;54.926;73.496;2023-12-29T08:19:08;1.65;;;1.55;;
59907;SDS011;61804;54.926;73.496;2023-12-29T08:21:37;2.45;;;1.95;;
59907;SDS011;61804;54.926;73.496;2023-12-29T08:24:05;1.15;;;1.02;;
59907;SDS011;61804;54.926;73.496;2023-12-29T08:26:33;2.22;;;2.03;;
59907;SDS011;61804;54.926;73.496;2023-12-29T08:29:00;1.42;;;1.15;;
59907;SDS011;61804;54.926;73.496;2023-12-29T08:31:27;1.92;;;1.50;;
59907;SDS011;61804;54.926;73.496;2023-12-29T08:33:56;1.25;;;1.15;;
59907;SDS011;61804;54.926;73.496;2023-12-29T08:36:26;2.22;;;2.00;;
59907;SDS011;61804;54.926;73.496;2023-12-29T08:38:54;2.70;;;2.25;;
59907;SDS011;61804;54.926;73.496;2023-12-29T08:41:23;1.45;;;1.30;;
59907;SDS011;61804;54.926;73.496;2023-12-29T08:43:51;1.40;;;1.30;;
59907;SDS011;61804;54.926;73.496;2023-12-29T08:46:20;2.05;;;1.80;;
59907;SDS011;61804;54.926;73.496;2023-12-29T08:48:48;2.47;;;1.85;;
59907;SDS011;61804;54.926;73.496;2023-12-29T08:51:16;2.58;;;2.03;;
59907;SDS011;61804;54.926;73.496;2023-12-29T08:53:44;3.90;;;2.63;;
59907;SDS011;61804;54.926;73.496;2023-12-29T08:56:13;2.03;;;1.60;;
59907;SDS011;61804;54.926;73.496;2023-12-29T08:58:43;1.98;;;1.77;;
59907;SDS011;61804;54.926;73.496;2023-12-29T09:01:11;1.60;;;1.42;;
59907;SDS011;61804;54.926;73.496;2023-12-29T09:03:39;2.47;;;1.77;;
59907;SDS011;61804;54.926;73.496;2023-12-29T09:06:08;1.30;;;1.20;;
59907;SDS011;61804;54.926;73.496;2023-12-29T09:08:36;3.40;;;2.83;;
59907;SDS011;61804;54.926;73.496;2023-12-29T09:11:04;3.80;;;3.45;;
59907;SDS011;61804;54.926;73.496;2023-12-29T09:13:31;2.13;;;1.50;;
59907;SDS011;61804;54.926;73.496;2023-12-29T09:16:13;6.80;;;5.05;;
59907;SDS011;61804;54.926;73.496;2023-12-29T09:18:40;2.80;;;2.58;;
59907;SDS011;61804;54.926;73.496;2023-12-29T09:21:09;1.83;;;1.30;;
59907;SDS011;61804;54.926;73.496;2023-12-29T09:23:37;2.78;;;2.00;;
59907;SDS011;61804;54.926;73.496;2023-12-29T09:26:05;2.63;;;1.33;;
59907;SDS011;61804;54.926;73.496;2023-12-29T09:28:32;2.47;;;1.35;;
59907;SDS011;61804;54.926;73.496;2023-12-29T09:31:00;0.73;;;0.73;;
59907;SDS011;61804;54.926;73.496;2023-12-29T09:33:28;1.55;;;1.20;;
59907;SDS011;61804;54.926;73.496;2023-12-29T09:35:56;5.93;;;3.13;;
59907;SDS011;61804;54.926;73.496;2023-12-29T09:38:24;3.85;;;3.15;;
59907;SDS011;61804;54.926;73.496;2023-12-29T09:40:57;2.13;;;1.92;;
59907;SDS011;61804;54.926;73.496;2023-12-29T09:43:26;1.20;;;1.10;;
59907;SDS011;61804;54.926;73.496;2023-12-29T09:46:00;1.27;;;1.13;;
59907;SDS011;61804;54.926;73.496;2023-12-29T09:48:29;1.70;;;1.20;;
59907;SDS011;61804;54.926;73.496;2023-12-29T09:50:58;1.08;;;0.90;;
59907;SDS011;61804;54.926;73.496;2023-12-29T09:53:26;0.90;;;0.90;;
59907;SDS011;61804;54.926;73.496;2023-12-29T09:55:55;1.55;;;1.45;;
59907;SDS011;61804;54.926;73.496;2023-12-29T09:58:25;3.25;;;2.47;;
59907;SDS011;61804;54.926;73.496;2023-12-29T10:00:53;1.85;;;1.75;;
59907;SDS011;61804;54.926;73.496;2023-12-29T10:03:21;2.55;;;2.35;;
59907;SDS011;61804;54.926;73.496;2023-12-29T10:05:50;9.02;;;6.63;;
59907;SDS011;61804;54.926;73.496;2023-12-29T10:08:18;6.60;;;4.10;;
59907;SDS011;61804;54.926;73.496;2023-12-29T10:10:47;8.48;;;4.88;;
59907;SDS011;61804;54.926;73.496;2023-12-29T10:13:17;3.53;;;2.55;;
59907;SDS011;61804;54.926;73.496;2023-12-29T10:18:31;3.35;;;2.47;;
59907;SDS011;61804;54.926;73.496;2023-12-29T10:21:17;1.60;;;1.50;;
59907;SDS011;61804;54.926;73.496;2023-12-29T10:26:19;1.13;;;1.05;;
59907;SDS011;61804;54.926;73.496;2023-12-29T10:28:47;1.23;;;1.15;;
59907;SDS011;61804;54.926;73.496;2023-12-29T10:31:15;1.85;;;1.42;;
59907;SDS011;61804;54.926;73.496;2023-12-29T10:33:45;1.55;;;1.40;;
59907;SDS011;61804;54.926;73.496;2023-12-29T10:36:17;2.00;;;1.75;;
59907;SDS011;61804;54.926;73.496;2023-12-29T10:38:44;2.42;;;2.20;;
59907;SDS011;61804;54.926;73.496;2023-12-29T10:41:17;1.73;;;1.00;;
59907;SDS011;61804;54.926;73.496;2023-12-29T10:43:45;8.43;;;2.03;;
59907;SDS011;61804;54.926;73.496;2023-12-29T10:46:19;2.65;;;1.92;;
59907;SDS011;61804;54.926;73.496;2023-12-29T10:48:47;2.53;;;2.00;;
59907;SDS011;61804;54.926;73.496;2023-12-29T10:51:15;2.88;;;2.50;;
59907;SDS011;61804;54.926;73.496;2023-12-29T10:53:54;3.83;;;2.45;;
59907;SDS011;61804;54.926;73.496;2023-12-29T10:56:23;3.13;;;2.78;;
59907;SDS011;61804;54.926;73.496;2023-12-29T10:58:58;4.82;;;3.75;;
59907;SDS011;61804;54.926;73.496;2023-12-29T11:01:26;3.90;;;3.10;;
59907;SDS011;61804;54.926;73.496;2023-12-29T11:04:00;2.30;;;2.10;;
59907;SDS011;61804;54.926;73.496;2023-12-29T11:06:27;3.83;;;3.10;;
59907;SDS011;61804;54.926;73.496;2023-12-29T11:08:58;3.45;;;2.92;;
59907;SDS011;61804;54.926;73.496;2023-12-29T11:11:25;3.67;;;3.38;;
59907;SDS011;61804;54.926;73.496;2023-12-29T11:13:53;4.43;;;3.17;;
59907;SDS011;61804;54.926;73.496;2023-12-29T11:16:21;7.90;;;3.95;;
59907;SDS011;61804;54.926;73.496;2023-12-29T11:18:50;2.08;;;1.98;;
59907;SDS011;61804;54.926;73.496;2023-12-29T11:21:19;2.90;;;2.35;;
59907;SDS011;61804;54.926;73.496;2023-12-29T11:23:46;3.72;;;3.42;;
59907;SDS011;61804;54.926;73.496;2023-12-29T11:26:15;3.03;;;2.72;;
59907;SDS011;61804;54.926;73.496;2023-12-29T11:28:48;3.95;;;3.55;;
59907;SDS011;61804;54.926;73.496;2023-12-29T11:31:16;4.47;;;4.07;;
59907;SDS011;61804;54.926;73.496;2023-12-29T11:33:46;3.33;;;3.13;;
59907;SDS011;61804;54.926;73.496;2023-12-29T11:36:17;4.82;;;3.97;;
59907;SDS011;61804;54.926;73.496;2023-12-29T11:43:58;2.42;;;2.22;;
59907;SDS011;61804;54.926;73.496;2023-12-29T11:46:34;4.55;;;3.30;;
59907;SDS011;61804;54.926;73.496;2023-12-29T11:49:03;3.53;;;3.22;;
59907;SDS011;61804;54.926;73.496;2023-12-29T11:51:35;2.92;;;2.72;;
59907;SDS011;61804;54.926;73.496;2023-12-29T11:54:05;13.38;;;3.47;;
59907;SDS011;61804;54.926;73.496;2023-12-29T11:56:35;5.13;;;4.63;;
59907;SDS011;61804;54.926;73.496;2023-12-29T11:59:25;4.55;;;3.95;;
59907;SDS011;61804;54.926;73.496;2023-12-29T12:01:56;4.20;;;3.80;;
59907;SDS011;61804;54.926;73.496;2023-12-29T12:04:40;4.75;;;4.13;;
59907;SDS011;61804;54.926;73.496;2023-12-29T12:07:10;7.60;;;5.80;;
59907;SDS011;61804;54.926;73.496;2023-12-29T12:09:40;15.20;;;11.55;;
59907;SDS011;61804;54.926;73.496;2023-12-29T12:12:09;3.80;;;3.10;;
59907;SDS011;61804;54.926;73.496;2023-12-29T12:14:51;15.52;;;10.70;;
59907;SDS011;61804;54.926;73.496;2023-12-29T12:17:29;11.88;;;9.05;;
59907;SDS011;61804;54.926;73.496;2023-12-29T12:22:26;13.73;;;10.65;;
59907;SDS011;61804;54.926;73.496;2023-12-29T12:24:57;16.70;;;12.02;;
59907;SDS011;61804;54.926;73.496;2023-12-29T12:27:26;13.30;;;11.25;;
59907;SDS011;61804;54.926;73.496;2023-12-29T12:30:04;9.13;;;5.22;;
59907;SDS011;61804;54.926;73.496;2023-12-29T12:32:32;6.20;;;4.13;;
59907;SDS011;61804;54.926;73.496;2023-12-29T12:35:00;4.57;;;3.95;;
59907;SDS011;61804;54.926;73.496;2023-12-29T12:37:30;7.68;;;6.75;;
59907;SDS011;61804;54.926;73.496;2023-12-29T12:39:58;8.38;;;4.85;;
59907;SDS011;61804;54.926;73.496;2023-12-29T12:42:30;4.70;;;4.28;;
59907;SDS011;61804;54.926;73.496;2023-12-29T12:45:06;3.80;;;3.42;;
59907;SDS011;61804;54.926;73.496;2023-12-29T12:47:36;4.55;;;3.83;;
59907;SDS011;61804;54.926;73.496;2023-12-29T12:50:05;6.22;;;3.95;;
59907;SDS011;61804;54.926;73.496;2023-12-29T12:52:35;4.93;;;4.43;;
59907;SDS011;61804;54.926;73.496;2023-12-29T12:55:04;7.63;;;5.32;;
59907;SDS011;61804;54.926;73.496;2023-12-29T12:57:32;7.00;;;5.45;;
59907;SDS011;61804;54.926;73.496;2023-12-29T13:00:00;4.90;;;3.10;;
59907;SDS011;61804;54.926;73.496;2023-12-29T13:02:29;6.60;;;5.55;;
59907;SDS011;61804;54.926;73.496;2023-12-29T13:04:57;7.15;;;3.95;;
59907;SDS011;61804;54.926;73.496;2023-12-29T13:07:25;4.68;;;4.10;;
59907;SDS011;61804;54.926;73.496;2023-12-29T13:09:54;9.25;;;5.88;;
59907;SDS011;61804;54.926;73.496;2023-12-29T13:12:23;5.20;;;3.60;;
59907;SDS011;61804;54.926;73.496;2023-12-29T13:14:51;15.82;;;6.13;;
59907;SDS011;61804;54.926;73.496;2023-12-29T13:17:20;5.15;;;4.65;;
59907;SDS011;61804;54.926;73.496;2023-12-29T13:19:55;4.57;;;3.72;;
59907;SDS011;61804;54.926;73.496;2023-12-29T13:22:40;6.75;;;5.63;;
59907;SDS011;61804;54.926;73.496;2023-12-29T13:25:09;6.43;;;4.13;;
59907;SDS011;61804;54.926;73.496;2023-12-29T13:27:39;4.95;;;4.13;;
59907;SDS011;61804;54.926;73.496;2023-12-29T13:30:06;8.52;;;3.65;;
59907;SDS011;61804;54.926;73.496;2023-12-29T13:32:34;5.05;;;4.55;;
59907;SDS011;61804;54.926;73.496;2023-12-29T13:35:06;4.68;;;3.97;;
59907;SDS011;61804;54.926;73.496;2023-12-29T13:40:56;4.95;;;4.45;;
59907;SDS011;61804;54.926;73.496;2023-12-29T13:43:25;8.90;;;6.30;;
59907;SDS011;61804;54.926;73.496;2023-12-29T13:45:54;9.48;;;7.30;;
59907;SDS011;61804;54.926;73.496;2023-12-29T13:48:23;4.63;;;4.22;;
59907;SDS011;61804;54.926;73.496;2023-12-29T13:50:50;5.55;;;5.03;;
59907;SDS011;61804;54.926;73.496;2023-12-29T13:53:18;8.98;;;5.32;;
59907;SDS011;61804;54.926;73.496;2023-12-29T13:55:46;8.45;;;5.85;;
59907;SDS011;61804;54.926;73.496;2023-12-29T13:58:14;4.03;;;3.72;;
59907;SDS011;61804;54.926;73.496;2023-12-29T14:00:42;6.85;;;5.70;;
59907;SDS011;61804;54.926;73.496;2023-12-29T14:03:26;5.70;;;5.15;;
59907;SDS011;61804;54.926;73.496;2023-12-29T14:06:00;5.57;;;4.68;;
59907;SDS011;61804;54.926;73.496;2023-12-29T14:08:31;5.18;;;3.20;;
59907;SDS011;61804;54.926;73.496;2023-12-29T14:11:01;8.18;;;5.32;;
59907;SDS011;61804;54.926;73.496;2023-12-29T14:13:33;6.90;;;4.45;;
59907;SDS011;61804;54.926;73.496;2023-12-29T14:16:02;5.65;;;4.22;;
59907;SDS011;61804;54.926;73.496;2023-12-29T14:20:59;7.15;;;5.43;;
59907;SDS011;61804;54.926;73.496;2023-12-29T14:23:27;20.27;;;9.32;;
59907;SDS011;61804;54.926;73.496;2023-12-29T14:26:02;6.03;;;5.32;;
59907;SDS011;61804;54.926;73.496;2023-12-29T14:28:29;5.90;;;3.75;;
59907;SDS011;61804;54.926;73.496;2023-12-29T14:31:03;4.47;;;3.95;;
59907;SDS011;61804;54.926;73.496;2023-12-29T14:33:30;8.15;;;3.83;;
59907;SDS011;61804;54.926;73.496;2023-12-29T14:35:59;5.70;;;3.03;;
59907;SDS011;61804;54.926;73.496;2023-12-29T14:38:27;5.65;;;3.40;;
59907;SDS011;61804;54.926;73.496;2023-12-29T14:40:55;5.45;;;3.65;;
59907;SDS011;61804;54.926;73.496;2023-12-29T14:43:23;4.50;;;3.53;;
59907;SDS011;61804;54.926;73.496;2023-12-29T14:45:51;3.80;;;3.40;;
59907;SDS011;61804;54.926;73.496;2023-12-29T14:48:22;4.38;;;3.38;;
59907;SDS011;61804;54.926;73.496;2023-12-29T14:50:51;5.38;;;3.80;;
59907;SDS011;61804;54.926;73.496;2023-12-29T14:53:19;12.90;;;4.63;;
59907;SDS011;61804;54.926;73.496;2023-12-29T14:55:47;22.15;;;5.28;;
59907;SDS011;61804;54.926;73.496;2023-12-29T14:58:14;7.00;;;4.68;;
59907;SDS011;61804;54.926;73.496;2023-12-29T15:00:45;18.25;;;5.07;;
59907;SDS011;61804;54.926;73.496;2023-12-29T15:03:14;6.85;;;5.03;;
59907;SDS011;61804;54.926;73.496;2023-12-29T15:05:43;6.80;;;4.43;;